sensor_id;sensor_type;location;lat;lon;timestamp;P1;durP1;ratioP1;P2;durP2;ratioP2
9413;SDS011;4746;35.664;139.738;2023-08-06T00:00:44;6.38;;;5.70;;
9413;SDS011;4746;35.664;139.738;2023-08-06T00:03:11;8.25;;;5.70;;
9413;SDS011;4746;35.664;139.738;2023-08-06T00:05:41;7.97;;;5.70;;
9413;SDS011;4746;35.664;139.738;2023-08-06T00:08:09;5.20;;;4.68;;
9413;SDS011;4746;35.664;139.738;2023-08-06T00:10:36;4.43;;;3.80;;
9413;SDS011;4746;35.664;139.738;2023-08-06T00:13:07;5.82;;;4.18;;
9413;SDS011;4746;35.664;139.738;2023-08-06T00:15:35;4.78;;;4.00;;
9413;SDS011;4746;35.664;139.738;2023-08-06T00:18:02;4.88;;;4.45;;
9413;SDS011;4746;35.664;139.738;2023-08-06T00:20:30;4.72;;;4.20;;
9413;SDS011;4746;35.664;139.738;2023-08-06T00:22:57;6.15;;;3.92;;
9413;SDS011;4746;35.664;139.738;2023-08-06T00:25:25;4.72;;;4.20;;
9413;SDS011;4746;35.664;139.738;2023-08-06T00:27:55;8.30;;;4.68;;
9413;SDS011;4746;35.664;139.738;2023-08-06T00:30:23;5.85;;;5.30;;
9413;SDS011;4746;35.664;139.738;2023-08-06T00:32:50;7.30;;;4.80;;
9413;SDS011;4746;35.664;139.738;2023-08-06T00:35:18;6.57;;;5.40;;
9413;SDS011;4746;35.664;139.738;2023-08-06T00:37:45;5.28;;;4.85;;
9413;SDS011;4746;35.664;139.738;2023-08-06T00:40:13;7.90;;;5.50;;
9413;SDS011;4746;35.664;139.738;2023-08-06T00:42:42;5.80;;;5.28;;
9413;SDS011;4746;35.664;139.738;2023-08-06T00:45:10;7.88;;;4.75;;
9413;SDS011;4746;35.664;139.738;2023-08-06T00:47:38;8.50;;;4.28;;
9413;SDS011;4746;35.664;139.738;2023-08-06T00:50:06;7.47;;;4.32;;
9413;SDS011;4746;35.664;139.738;2023-08-06T00:52:34;4.75;;;4.18;;
9413;SDS011;4746;35.664;139.738;2023-08-06T00:55:03;4.35;;;3.95;;
9413;SDS011;4746;35.664;139.738;2023-08-06T00:57:33;5.82;;;4.47;;
9413;SDS011;4746;35.664;139.738;2023-08-06T01:00:02;6.82;;;3.60;;
9413;SDS011;4746;35.664;139.738;2023-08-06T01:02:30;4.50;;;3.72;;
9413;SDS011;4746;35.664;139.738;2023-08-06T01:04:58;4.47;;;3.42;;
9413;SDS011;4746;35.664;139.738;2023-08-06T01:07:35;5.28;;;3.40;;
9413;SDS011;4746;35.664;139.738;2023-08-06T01:16:15;4.97;;;2.40;;
9413;SDS011;4746;35.664;139.738;2023-08-06T01:18:49;3.38;;;2.33;;
9413;SDS011;4746;35.664;139.738;2023-08-06T01:21:17;5.28;;;2.92;;
9413;SDS011;4746;35.664;139.738;2023-08-06T01:23:47;5.65;;;2.53;;
9413;SDS011;4746;35.664;139.738;2023-08-06T01:29:23;2.25;;;1.60;;
9413;SDS011;4746;35.664;139.738;2023-08-06T01:32:18;2.30;;;1.30;;
9413;SDS011;4746;35.664;139.738;2023-08-06T01:34:48;4.63;;;1.30;;
9413;SDS011;4746;35.664;139.738;2023-08-06T01:37:17;2.63;;;1.40;;
9413;SDS011;4746;35.664;139.738;2023-08-06T01:39:45;4.78;;;1.50;;
9413;SDS011;4746;35.664;139.738;2023-08-06T01:42:15;3.78;;;1.25;;
9413;SDS011;4746;35.664;139.738;2023-08-06T01:44:42;3.13;;;1.05;;
9413;SDS011;4746;35.664;139.738;2023-08-06T01:47:25;2.75;;;0.95;;
9413;SDS011;4746;35.664;139.738;2023-08-06T01:50:08;2.92;;;0.80;;
9413;SDS011;4746;35.664;139.738;2023-08-06T01:52:40;4.10;;;1.20;;
9413;SDS011;4746;35.664;139.738;2023-08-06T01:55:08;2.67;;;1.08;;
9413;SDS011;4746;35.664;139.738;2023-08-06T01:57:36;3.85;;;1.05;;
9413;SDS011;4746;35.664;139.738;2023-08-06T02:00:03;3.50;;;1.33;;
9413;SDS011;4746;35.664;139.738;2023-08-06T02:02:32;2.33;;;0.93;;
9413;SDS011;4746;35.664;139.738;2023-08-06T02:04:59;3.45;;;1.08;;
9413;SDS011;4746;35.664;139.738;2023-08-06T02:07:27;1.98;;;0.82;;
9413;SDS011;4746;35.664;139.738;2023-08-06T02:09:54;3.45;;;1.30;;
9413;SDS011;4746;35.664;139.738;2023-08-06T02:12:22;1.80;;;1.15;;
9413;SDS011;4746;35.664;139.738;2023-08-06T02:14:49;3.92;;;1.70;;
9413;SDS011;4746;35.664;139.738;2023-08-06T02:17:17;4.10;;;1.77;;
9413;SDS011;4746;35.664;139.738;2023-08-06T02:19:44;4.32;;;1.83;;
9413;SDS011;4746;35.664;139.738;2023-08-06T02:22:12;4.32;;;1.67;;
9413;SDS011;4746;35.664;139.738;2023-08-06T02:24:39;4.50;;;1.90;;
9413;SDS011;4746;35.664;139.738;2023-08-06T02:27:07;4.65;;;2.28;;
9413;SDS011;4746;35.664;139.738;2023-08-06T02:29:34;4.00;;;1.98;;
9413;SDS011;4746;35.664;139.738;2023-08-06T02:32:03;5.55;;;1.80;;
9413;SDS011;4746;35.664;139.738;2023-08-06T02:34:31;5.38;;;2.10;;
9413;SDS011;4746;35.664;139.738;2023-08-06T02:37:00;4.28;;;1.60;;
9413;SDS011;4746;35.664;139.738;2023-08-06T02:39:28;2.92;;;1.67;;
9413;SDS011;4746;35.664;139.738;2023-08-06T02:41:55;2.22;;;1.35;;
9413;SDS011;4746;35.664;139.738;2023-08-06T02:44:23;3.83;;;1.48;;
9413;SDS011;4746;35.664;139.738;2023-08-06T02:46:53;3.15;;;1.40;;
9413;SDS011;4746;35.664;139.738;2023-08-06T02:49:21;3.63;;;1.38;;
9413;SDS011;4746;35.664;139.738;2023-08-06T02:51:50;2.50;;;1.27;;
9413;SDS011;4746;35.664;139.738;2023-08-06T02:54:18;3.90;;;1.40;;
9413;SDS011;4746;35.664;139.738;2023-08-06T02:56:49;2.55;;;1.17;;
9413;SDS011;4746;35.664;139.738;2023-08-06T02:59:16;2.42;;;1.20;;
9413;SDS011;4746;35.664;139.738;2023-08-06T03:01:44;4.85;;;1.38;;
9413;SDS011;4746;35.664;139.738;2023-08-06T03:04:12;5.35;;;1.13;;
9413;SDS011;4746;35.664;139.738;2023-08-06T03:06:39;3.30;;;1.20;;
9413;SDS011;4746;35.664;139.738;2023-08-06T03:09:06;2.35;;;0.95;;
9413;SDS011;4746;35.664;139.738;2023-08-06T03:11:34;3.15;;;1.42;;
9413;SDS011;4746;35.664;139.738;2023-08-06T03:14:01;2.55;;;1.13;;
9413;SDS011;4746;35.664;139.738;2023-08-06T03:16:29;4.97;;;1.63;;
9413;SDS011;4746;35.664;139.738;2023-08-06T03:18:56;4.00;;;1.13;;
9413;SDS011;4746;35.664;139.738;2023-08-06T03:21:24;2.97;;;1.30;;
9413;SDS011;4746;35.664;139.738;2023-08-06T03:23:52;2.72;;;1.23;;
9413;SDS011;4746;35.664;139.738;2023-08-06T03:26:19;3.33;;;1.52;;
9413;SDS011;4746;35.664;139.738;2023-08-06T03:28:47;4.43;;;1.38;;
9413;SDS011;4746;35.664;139.738;2023-08-06T03:31:14;4.75;;;1.30;;
9413;SDS011;4746;35.664;139.738;2023-08-06T03:33:42;2.05;;;0.70;;
9413;SDS011;4746;35.664;139.738;2023-08-06T03:36:10;2.03;;;0.65;;
9413;SDS011;4746;35.664;139.738;2023-08-06T03:38:37;2.10;;;0.40;;
9413;SDS011;4746;35.664;139.738;2023-08-06T03:41:05;3.10;;;0.70;;
9413;SDS011;4746;35.664;139.738;2023-08-06T03:43:32;2.53;;;0.63;;
9413;SDS011;4746;35.664;139.738;2023-08-06T03:46:00;2.67;;;1.10;;
9413;SDS011;4746;35.664;139.738;2023-08-06T03:48:27;3.28;;;1.17;;
9413;SDS011;4746;35.664;139.738;2023-08-06T03:50:55;4.63;;;1.20;;
9413;SDS011;4746;35.664;139.738;2023-08-06T03:53:28;4.20;;;1.10;;
9413;SDS011;4746;35.664;139.738;2023-08-06T03:55:56;5.20;;;1.58;;
9413;SDS011;4746;35.664;139.738;2023-08-06T03:58:25;2.05;;;0.68;;
9413;SDS011;4746;35.664;139.738;2023-08-06T04:01:02;3.10;;;0.80;;
9413;SDS011;4746;35.664;139.738;2023-08-06T04:03:30;0.55;;;0.40;;
9413;SDS011;4746;35.664;139.738;2023-08-06T04:05:57;1.40;;;0.40;;
9413;SDS011;4746;35.664;139.738;2023-08-06T04:08:26;2.30;;;0.75;;
9413;SDS011;4746;35.664;139.738;2023-08-06T04:10:54;1.60;;;0.50;;
9413;SDS011;4746;35.664;139.738;2023-08-06T04:13:21;1.42;;;0.45;;
9413;SDS011;4746;35.664;139.738;2023-08-06T04:15:49;1.95;;;0.52;;
9413;SDS011;4746;35.664;139.738;2023-08-06T04:18:16;2.40;;;0.60;;
9413;SDS011;4746;35.664;139.738;2023-08-06T04:20:47;1.20;;;0.40;;
9413;SDS011;4746;35.664;139.738;2023-08-06T04:23:15;1.15;;;0.75;;
9413;SDS011;4746;35.664;139.738;2023-08-06T04:25:42;0.65;;;0.38;;
9413;SDS011;4746;35.664;139.738;2023-08-06T04:28:10;2.20;;;1.38;;
9413;SDS011;4746;35.664;139.738;2023-08-06T04:30:37;2.28;;;1.13;;
9413;SDS011;4746;35.664;139.738;2023-08-06T04:33:05;1.45;;;0.75;;
9413;SDS011;4746;35.664;139.738;2023-08-06T04:35:32;1.85;;;0.68;;
9413;SDS011;4746;35.664;139.738;2023-08-06T04:38:00;2.63;;;0.70;;
9413;SDS011;4746;35.664;139.738;2023-08-06T04:40:27;2.25;;;1.00;;
9413;SDS011;4746;35.664;139.738;2023-08-06T04:42:55;2.55;;;1.00;;
9413;SDS011;4746;35.664;139.738;2023-08-06T04:45:22;1.83;;;0.43;;
9413;SDS011;4746;35.664;139.738;2023-08-06T04:47:50;4.13;;;0.88;;
9413;SDS011;4746;35.664;139.738;2023-08-06T04:50:19;3.88;;;1.15;;
9413;SDS011;4746;35.664;139.738;2023-08-06T04:52:47;2.75;;;1.10;;
9413;SDS011;4746;35.664;139.738;2023-08-06T04:55:14;2.15;;;1.00;;
9413;SDS011;4746;35.664;139.738;2023-08-06T04:57:42;1.98;;;0.80;;
9413;SDS011;4746;35.664;139.738;2023-08-06T05:00:13;1.13;;;0.50;;
9413;SDS011;4746;35.664;139.738;2023-08-06T05:02:41;0.65;;;0.52;;
9413;SDS011;4746;35.664;139.738;2023-08-06T05:05:09;1.05;;;0.60;;
9413;SDS011;4746;35.664;139.738;2023-08-06T05:07:36;2.47;;;0.80;;
9413;SDS011;4746;35.664;139.738;2023-08-06T05:10:04;1.58;;;1.40;;
9413;SDS011;4746;35.664;139.738;2023-08-06T05:12:32;1.65;;;1.35;;
9413;SDS011;4746;35.664;139.738;2023-08-06T05:14:59;2.50;;;1.45;;
9413;SDS011;4746;35.664;139.738;2023-08-06T05:17:27;1.98;;;1.13;;
9413;SDS011;4746;35.664;139.738;2023-08-06T05:19:54;1.17;;;1.05;;
9413;SDS011;4746;35.664;139.738;2023-08-06T05:22:24;3.17;;;1.15;;
9413;SDS011;4746;35.664;139.738;2023-08-06T05:24:51;1.60;;;1.08;;
9413;SDS011;4746;35.664;139.738;2023-08-06T05:27:19;2.08;;;1.27;;
9413;SDS011;4746;35.664;139.738;2023-08-06T05:29:47;2.40;;;1.00;;
9413;SDS011;4746;35.664;139.738;2023-08-06T05:32:15;2.10;;;0.75;;
9413;SDS011;4746;35.664;139.738;2023-08-06T05:34:42;4.72;;;1.13;;
9413;SDS011;4746;35.664;139.738;2023-08-06T05:37:10;1.65;;;0.70;;
9413;SDS011;4746;35.664;139.738;2023-08-06T05:39:37;1.95;;;0.73;;
9413;SDS011;4746;35.664;139.738;2023-08-06T05:42:05;2.28;;;0.82;;
9413;SDS011;4746;35.664;139.738;2023-08-06T05:44:33;4.88;;;1.17;;
9413;SDS011;4746;35.664;139.738;2023-08-06T05:47:02;6.63;;;1.45;;
9413;SDS011;4746;35.664;139.738;2023-08-06T05:49:29;4.20;;;1.00;;
9413;SDS011;4746;35.664;139.738;2023-08-06T05:51:57;4.45;;;1.08;;
9413;SDS011;4746;35.664;139.738;2023-08-06T05:54:25;1.50;;;0.63;;
9413;SDS011;4746;35.664;139.738;2023-08-06T05:56:52;2.47;;;0.80;;
9413;SDS011;4746;35.664;139.738;2023-08-06T05:59:20;2.38;;;1.05;;
9413;SDS011;4746;35.664;139.738;2023-08-06T06:01:47;2.65;;;0.70;;
9413;SDS011;4746;35.664;139.738;2023-08-06T06:04:15;2.17;;;1.33;;
9413;SDS011;4746;35.664;139.738;2023-08-06T06:06:42;1.58;;;1.02;;
9413;SDS011;4746;35.664;139.738;2023-08-06T06:09:10;2.95;;;1.05;;
9413;SDS011;4746;35.664;139.738;2023-08-06T06:11:37;2.65;;;1.40;;
9413;SDS011;4746;35.664;139.738;2023-08-06T06:14:05;1.50;;;1.40;;
9413;SDS011;4746;35.664;139.738;2023-08-06T06:16:33;2.88;;;1.30;;
9413;SDS011;4746;35.664;139.738;2023-08-06T06:19:01;2.03;;;1.80;;
9413;SDS011;4746;35.664;139.738;2023-08-06T06:21:28;1.92;;;1.50;;
9413;SDS011;4746;35.664;139.738;2023-08-06T06:23:56;2.15;;;1.30;;
9413;SDS011;4746;35.664;139.738;2023-08-06T06:26:23;1.95;;;1.50;;
9413;SDS011;4746;35.664;139.738;2023-08-06T06:28:51;1.30;;;1.20;;
9413;SDS011;4746;35.664;139.738;2023-08-06T06:31:18;2.58;;;1.77;;
9413;SDS011;4746;35.664;139.738;2023-08-06T06:33:46;2.08;;;1.40;;
9413;SDS011;4746;35.664;139.738;2023-08-06T06:36:14;2.53;;;1.60;;
9413;SDS011;4746;35.664;139.738;2023-08-06T06:38:41;2.85;;;1.98;;
9413;SDS011;4746;35.664;139.738;2023-08-06T06:41:09;2.50;;;1.58;;
9413;SDS011;4746;35.664;139.738;2023-08-06T06:43:36;3.28;;;1.63;;
9413;SDS011;4746;35.664;139.738;2023-08-06T06:46:05;3.35;;;1.55;;
9413;SDS011;4746;35.664;139.738;2023-08-06T06:48:32;3.13;;;1.90;;
9413;SDS011;4746;35.664;139.738;2023-08-06T06:51:00;2.47;;;1.67;;
9413;SDS011;4746;35.664;139.738;2023-08-06T06:53:28;3.45;;;1.80;;
9413;SDS011;4746;35.664;139.738;2023-08-06T06:55:56;3.80;;;1.90;;
9413;SDS011;4746;35.664;139.738;2023-08-06T06:58:31;4.80;;;2.55;;
9413;SDS011;4746;35.664;139.738;2023-08-06T07:01:00;3.72;;;2.03;;
9413;SDS011;4746;35.664;139.738;2023-08-06T07:03:28;6.75;;;2.92;;
9413;SDS011;4746;35.664;139.738;2023-08-06T07:05:59;9.40;;;2.90;;
9413;SDS011;4746;35.664;139.738;2023-08-06T07:08:26;7.22;;;2.88;;
9413;SDS011;4746;35.664;139.738;2023-08-06T07:11:01;7.78;;;2.90;;
9413;SDS011;4746;35.664;139.738;2023-08-06T07:13:32;7.00;;;3.55;;
9413;SDS011;4746;35.664;139.738;2023-08-06T07:16:04;3.83;;;3.00;;
9413;SDS011;4746;35.664;139.738;2023-08-06T07:18:32;6.95;;;3.25;;
9413;SDS011;4746;35.664;139.738;2023-08-06T07:20:59;5.32;;;3.15;;
9413;SDS011;4746;35.664;139.738;2023-08-06T07:23:27;7.90;;;3.42;;
9413;SDS011;4746;35.664;139.738;2023-08-06T07:25:54;4.80;;;3.70;;
9413;SDS011;4746;35.664;139.738;2023-08-06T07:28:23;4.28;;;3.85;;
9413;SDS011;4746;35.664;139.738;2023-08-06T07:30:51;5.05;;;3.47;;
9413;SDS011;4746;35.664;139.738;2023-08-06T07:33:18;4.18;;;2.95;;
9413;SDS011;4746;35.664;139.738;2023-08-06T07:35:47;5.03;;;3.00;;
9413;SDS011;4746;35.664;139.738;2023-08-06T07:38:15;3.47;;;3.00;;
9413;SDS011;4746;35.664;139.738;2023-08-06T07:40:42;3.70;;;3.10;;
9413;SDS011;4746;35.664;139.738;2023-08-06T07:43:10;4.53;;;3.40;;
9413;SDS011;4746;35.664;139.738;2023-08-06T07:45:38;3.63;;;3.20;;
9413;SDS011;4746;35.664;139.738;2023-08-06T07:48:05;4.40;;;3.50;;
9413;SDS011;4746;35.664;139.738;2023-08-06T07:50:33;5.55;;;3.67;;
9413;SDS011;4746;35.664;139.738;2023-08-06T07:53:03;4.75;;;3.33;;
9413;SDS011;4746;35.664;139.738;2023-08-06T07:55:30;4.13;;;3.70;;
9413;SDS011;4746;35.664;139.738;2023-08-06T07:57:57;6.60;;;3.63;;
9413;SDS011;4746;35.664;139.738;2023-08-06T08:00:25;5.60;;;3.83;;
9413;SDS011;4746;35.664;139.738;2023-08-06T08:02:53;4.15;;;3.72;;
9413;SDS011;4746;35.664;139.738;2023-08-06T08:05:20;6.00;;;3.70;;
9413;SDS011;4746;35.664;139.738;2023-08-06T08:07:48;5.32;;;3.40;;
9413;SDS011;4746;35.664;139.738;2023-08-06T08:10:15;4.65;;;3.10;;
9413;SDS011;4746;35.664;139.738;2023-08-06T08:12:43;5.25;;;3.63;;
9413;SDS011;4746;35.664;139.738;2023-08-06T08:15:13;3.45;;;2.60;;
9413;SDS011;4746;35.664;139.738;2023-08-06T08:17:40;4.70;;;3.15;;
9413;SDS011;4746;35.664;139.738;2023-08-06T08:20:08;3.67;;;3.35;;
9413;SDS011;4746;35.664;139.738;2023-08-06T08:22:36;5.63;;;3.40;;
9413;SDS011;4746;35.664;139.738;2023-08-06T08:25:04;5.32;;;3.20;;
9413;SDS011;4746;35.664;139.738;2023-08-06T08:27:32;4.50;;;2.55;;
9413;SDS011;4746;35.664;139.738;2023-08-06T08:29:59;4.50;;;3.20;;
9413;SDS011;4746;35.664;139.738;2023-08-06T08:32:27;4.72;;;3.35;;
9413;SDS011;4746;35.664;139.738;2023-08-06T08:34:54;3.08;;;2.85;;
9413;SDS011;4746;35.664;139.738;2023-08-06T08:37:22;5.15;;;3.85;;
9413;SDS011;4746;35.664;139.738;2023-08-06T08:39:51;4.28;;;3.88;;
9413;SDS011;4746;35.664;139.738;2023-08-06T08:42:21;4.75;;;3.78;;
9413;SDS011;4746;35.664;139.738;2023-08-06T08:44:50;4.47;;;3.63;;
9413;SDS011;4746;35.664;139.738;2023-08-06T08:47:19;6.00;;;3.97;;
9413;SDS011;4746;35.664;139.738;2023-08-06T08:49:47;7.90;;;4.15;;
9413;SDS011;4746;35.664;139.738;2023-08-06T08:52:22;4.20;;;3.85;;
9413;SDS011;4746;35.664;139.738;2023-08-06T08:54:53;5.15;;;3.85;;
9413;SDS011;4746;35.664;139.738;2023-08-06T08:57:22;7.20;;;4.10;;
9413;SDS011;4746;35.664;139.738;2023-08-06T08:59:51;4.75;;;4.20;;
9413;SDS011;4746;35.664;139.738;2023-08-06T09:02:18;6.45;;;3.92;;
9413;SDS011;4746;35.664;139.738;2023-08-06T09:05:05;5.30;;;3.80;;
9413;SDS011;4746;35.664;139.738;2023-08-06T09:07:43;4.70;;;3.88;;
9413;SDS011;4746;35.664;139.738;2023-08-06T09:10:17;4.20;;;3.63;;
9413;SDS011;4746;35.664;139.738;2023-08-06T09:12:49;5.50;;;3.80;;
9413;SDS011;4746;35.664;139.738;2023-08-06T09:15:20;4.70;;;4.05;;
9413;SDS011;4746;35.664;139.738;2023-08-06T09:17:53;5.28;;;3.78;;
9413;SDS011;4746;35.664;139.738;2023-08-06T09:20:21;7.40;;;4.10;;
9413;SDS011;4746;35.664;139.738;2023-08-06T09:22:49;6.35;;;4.35;;
9413;SDS011;4746;35.664;139.738;2023-08-06T09:25:23;6.95;;;4.38;;
9413;SDS011;4746;35.664;139.738;2023-08-06T09:27:52;6.32;;;3.90;;
9413;SDS011;4746;35.664;139.738;2023-08-06T09:30:30;7.65;;;4.90;;
9413;SDS011;4746;35.664;139.738;2023-08-06T09:33:14;6.32;;;4.78;;
9413;SDS011;4746;35.664;139.738;2023-08-06T09:35:46;8.00;;;5.22;;
9413;SDS011;4746;35.664;139.738;2023-08-06T09:38:13;7.90;;;6.00;;
9413;SDS011;4746;35.664;139.738;2023-08-06T09:40:41;6.03;;;5.45;;
9413;SDS011;4746;35.664;139.738;2023-08-06T09:43:08;7.50;;;5.03;;
9413;SDS011;4746;35.664;139.738;2023-08-06T09:45:42;6.05;;;5.35;;
9413;SDS011;4746;35.664;139.738;2023-08-06T09:48:09;9.27;;;8.18;;
9413;SDS011;4746;35.664;139.738;2023-08-06T09:50:38;8.40;;;7.40;;
9413;SDS011;4746;35.664;139.738;2023-08-06T09:53:07;10.40;;;7.85;;
9413;SDS011;4746;35.664;139.738;2023-08-06T09:55:35;11.30;;;8.50;;
9413;SDS011;4746;35.664;139.738;2023-08-06T09:58:05;7.63;;;6.55;;
9413;SDS011;4746;35.664;139.738;2023-08-06T10:00:35;8.55;;;6.22;;
9413;SDS011;4746;35.664;139.738;2023-08-06T10:03:07;6.80;;;5.20;;
9413;SDS011;4746;35.664;139.738;2023-08-06T10:05:36;11.32;;;10.15;;
9413;SDS011;4746;35.664;139.738;2023-08-06T10:08:04;9.15;;;8.23;;
9413;SDS011;4746;35.664;139.738;2023-08-06T10:10:33;9.80;;;8.80;;
9413;SDS011;4746;35.664;139.738;2023-08-06T10:13:02;8.55;;;7.60;;
9413;SDS011;4746;35.664;139.738;2023-08-06T10:15:35;8.90;;;7.10;;
9413;SDS011;4746;35.664;139.738;2023-08-06T10:18:04;6.93;;;6.10;;
9413;SDS011;4746;35.664;139.738;2023-08-06T10:20:34;8.50;;;5.47;;
9413;SDS011;4746;35.664;139.738;2023-08-06T10:23:02;6.50;;;5.85;;
9413;SDS011;4746;35.664;139.738;2023-08-06T10:25:35;6.05;;;5.43;;
9413;SDS011;4746;35.664;139.738;2023-08-06T10:28:09;6.10;;;4.63;;
9413;SDS011;4746;35.664;139.738;2023-08-06T10:33:13;7.78;;;4.97;;
9413;SDS011;4746;35.664;139.738;2023-08-06T10:35:42;6.15;;;4.60;;
9413;SDS011;4746;35.664;139.738;2023-08-06T10:38:16;6.90;;;5.15;;
9413;SDS011;4746;35.664;139.738;2023-08-06T10:43:25;6.70;;;5.03;;
9413;SDS011;4746;35.664;139.738;2023-08-06T10:46:04;9.15;;;4.95;;
9413;SDS011;4746;35.664;139.738;2023-08-06T10:48:39;9.50;;;5.22;;
9413;SDS011;4746;35.664;139.738;2023-08-06T10:51:09;9.52;;;5.57;;
9413;SDS011;4746;35.664;139.738;2023-08-06T10:53:43;8.18;;;5.75;;
9413;SDS011;4746;35.664;139.738;2023-08-06T10:56:17;8.65;;;5.18;;
9413;SDS011;4746;35.664;139.738;2023-08-06T10:58:56;8.88;;;6.78;;
9413;SDS011;4746;35.664;139.738;2023-08-06T11:01:24;8.90;;;6.40;;
9413;SDS011;4746;35.664;139.738;2023-08-06T11:04:01;9.82;;;6.32;;
9413;SDS011;4746;35.664;139.738;2023-08-06T11:06:30;11.75;;;7.07;;
9413;SDS011;4746;35.664;139.738;2023-08-06T11:08:59;10.95;;;7.55;;
9413;SDS011;4746;35.664;139.738;2023-08-06T11:11:28;9.48;;;6.60;;
9413;SDS011;4746;35.664;139.738;2023-08-06T11:13:55;13.50;;;6.50;;
9413;SDS011;4746;35.664;139.738;2023-08-06T11:16:23;13.23;;;7.35;;
9413;SDS011;4746;35.664;139.738;2023-08-06T11:18:51;9.45;;;6.60;;
9413;SDS011;4746;35.664;139.738;2023-08-06T11:21:20;8.93;;;4.88;;
9413;SDS011;4746;35.664;139.738;2023-08-06T11:23:50;10.95;;;4.97;;
9413;SDS011;4746;35.664;139.738;2023-08-06T11:26:19;8.85;;;4.85;;
9413;SDS011;4746;35.664;139.738;2023-08-06T11:28:49;7.95;;;4.47;;
9413;SDS011;4746;35.664;139.738;2023-08-06T11:31:20;5.20;;;3.40;;
9413;SDS011;4746;35.664;139.738;2023-08-06T11:33:55;7.10;;;3.25;;
9413;SDS011;4746;35.664;139.738;2023-08-06T11:36:29;6.00;;;3.22;;
9413;SDS011;4746;35.664;139.738;2023-08-06T11:39:07;5.63;;;3.20;;
9413;SDS011;4746;35.664;139.738;2023-08-06T11:41:36;6.78;;;3.70;;
9413;SDS011;4746;35.664;139.738;2023-08-06T11:44:05;9.13;;;3.00;;
9413;SDS011;4746;35.664;139.738;2023-08-06T11:46:55;7.45;;;3.10;;
9413;SDS011;4746;35.664;139.738;2023-08-06T11:49:43;6.72;;;2.80;;
9413;SDS011;4746;35.664;139.738;2023-08-06T11:54:49;4.90;;;2.85;;
9413;SDS011;4746;35.664;139.738;2023-08-06T11:57:31;6.53;;;3.30;;
9413;SDS011;4746;35.664;139.738;2023-08-06T12:00:10;8.13;;;3.72;;
9413;SDS011;4746;35.664;139.738;2023-08-06T12:02:42;5.65;;;3.60;;
9413;SDS011;4746;35.664;139.738;2023-08-06T12:05:15;7.13;;;3.83;;
9413;SDS011;4746;35.664;139.738;2023-08-06T12:07:47;7.50;;;4.07;;
9413;SDS011;4746;35.664;139.738;2023-08-06T12:10:17;8.65;;;4.60;;
9413;SDS011;4746;35.664;139.738;2023-08-06T12:12:46;11.23;;;4.70;;
9413;SDS011;4746;35.664;139.738;2023-08-06T12:15:14;6.53;;;4.35;;
9413;SDS011;4746;35.664;139.738;2023-08-06T12:17:44;9.23;;;5.93;;
9413;SDS011;4746;35.664;139.738;2023-08-06T12:20:12;11.70;;;5.13;;
9413;SDS011;4746;35.664;139.738;2023-08-06T12:22:42;8.18;;;3.90;;
9413;SDS011;4746;35.664;139.738;2023-08-06T12:25:11;8.70;;;4.45;;
9413;SDS011;4746;35.664;139.738;2023-08-06T12:27:43;9.65;;;5.40;;
9413;SDS011;4746;35.664;139.738;2023-08-06T12:30:12;8.10;;;5.57;;
9413;SDS011;4746;35.664;139.738;2023-08-06T12:32:40;10.27;;;6.00;;
9413;SDS011;4746;35.664;139.738;2023-08-06T12:35:08;7.78;;;3.88;;
9413;SDS011;4746;35.664;139.738;2023-08-06T12:37:36;6.68;;;4.40;;
9413;SDS011;4746;35.664;139.738;2023-08-06T12:40:09;7.40;;;4.05;;
9413;SDS011;4746;35.664;139.738;2023-08-06T12:42:37;7.53;;;3.72;;
9413;SDS011;4746;35.664;139.738;2023-08-06T12:45:04;6.15;;;3.70;;
9413;SDS011;4746;35.664;139.738;2023-08-06T12:47:33;6.57;;;3.55;;
9413;SDS011;4746;35.664;139.738;2023-08-06T12:50:06;7.40;;;3.70;;
9413;SDS011;4746;35.664;139.738;2023-08-06T12:52:34;7.63;;;4.43;;
9413;SDS011;4746;35.664;139.738;2023-08-06T12:55:02;8.00;;;3.42;;
9413;SDS011;4746;35.664;139.738;2023-08-06T12:57:30;6.60;;;3.50;;
9413;SDS011;4746;35.664;139.738;2023-08-06T12:59:59;4.82;;;3.53;;
9413;SDS011;4746;35.664;139.738;2023-08-06T13:02:27;10.70;;;4.05;;
9413;SDS011;4746;35.664;139.738;2023-08-06T13:04:55;8.13;;;4.65;;
9413;SDS011;4746;35.664;139.738;2023-08-06T13:07:23;9.52;;;4.85;;
9413;SDS011;4746;35.664;139.738;2023-08-06T13:09:51;7.30;;;4.50;;
9413;SDS011;4746;35.664;139.738;2023-08-06T13:12:19;8.10;;;5.10;;
9413;SDS011;4746;35.664;139.738;2023-08-06T13:14:48;7.75;;;4.70;;
9413;SDS011;4746;35.664;139.738;2023-08-06T13:17:18;6.18;;;4.15;;
9413;SDS011;4746;35.664;139.738;2023-08-06T13:19:45;10.35;;;4.60;;
9413;SDS011;4746;35.664;139.738;2023-08-06T13:22:13;8.10;;;3.80;;
9413;SDS011;4746;35.664;139.738;2023-08-06T13:24:40;7.05;;;2.80;;
9413;SDS011;4746;35.664;139.738;2023-08-06T13:27:08;4.80;;;2.83;;
9413;SDS011;4746;35.664;139.738;2023-08-06T13:29:35;7.50;;;2.92;;
9413;SDS011;4746;35.664;139.738;2023-08-06T13:32:03;4.97;;;2.17;;
9413;SDS011;4746;35.664;139.738;2023-08-06T13:34:31;3.90;;;2.28;;
9413;SDS011;4746;35.664;139.738;2023-08-06T13:36:59;4.35;;;2.63;;
9413;SDS011;4746;35.664;139.738;2023-08-06T13:39:26;6.15;;;2.22;;
9413;SDS011;4746;35.664;139.738;2023-08-06T13:41:58;2.90;;;2.50;;
9413;SDS011;4746;35.664;139.738;2023-08-06T13:44:27;5.50;;;2.70;;
9413;SDS011;4746;35.664;139.738;2023-08-06T13:46:55;6.97;;;2.70;;
9413;SDS011;4746;35.664;139.738;2023-08-06T13:49:22;4.07;;;2.40;;
9413;SDS011;4746;35.664;139.738;2023-08-06T13:51:50;4.80;;;2.60;;
9413;SDS011;4746;35.664;139.738;2023-08-06T13:54:17;6.05;;;2.80;;
9413;SDS011;4746;35.664;139.738;2023-08-06T13:56:46;3.03;;;2.38;;
9413;SDS011;4746;35.664;139.738;2023-08-06T13:59:15;4.18;;;2.15;;
9413;SDS011;4746;35.664;139.738;2023-08-06T14:01:44;7.20;;;2.22;;
9413;SDS011;4746;35.664;139.738;2023-08-06T14:04:14;8.23;;;3.40;;
9413;SDS011;4746;35.664;139.738;2023-08-06T14:06:42;5.63;;;2.22;;
9413;SDS011;4746;35.664;139.738;2023-08-06T14:09:09;5.32;;;2.38;;
9413;SDS011;4746;35.664;139.738;2023-08-06T14:11:39;5.15;;;2.00;;
9413;SDS011;4746;35.664;139.738;2023-08-06T14:14:07;5.13;;;2.00;;
9413;SDS011;4746;35.664;139.738;2023-08-06T14:16:34;4.07;;;1.60;;
9413;SDS011;4746;35.664;139.738;2023-08-06T14:19:02;8.70;;;2.30;;
9413;SDS011;4746;35.664;139.738;2023-08-06T14:21:30;2.15;;;1.20;;
9413;SDS011;4746;35.664;139.738;2023-08-06T14:23:57;3.75;;;1.65;;
9413;SDS011;4746;35.664;139.738;2023-08-06T14:26:25;4.40;;;1.63;;
9413;SDS011;4746;35.664;139.738;2023-08-06T14:28:52;2.35;;;1.25;;
9413;SDS011;4746;35.664;139.738;2023-08-06T14:31:20;3.33;;;1.38;;
9413;SDS011;4746;35.664;139.738;2023-08-06T14:33:47;3.58;;;1.67;;
9413;SDS011;4746;35.664;139.738;2023-08-06T14:36:16;4.50;;;2.13;;
9413;SDS011;4746;35.664;139.738;2023-08-06T14:38:44;4.07;;;1.67;;
9413;SDS011;4746;35.664;139.738;2023-08-06T14:41:12;5.85;;;2.35;;
9413;SDS011;4746;35.664;139.738;2023-08-06T14:43:39;3.85;;;3.13;;
9413;SDS011;4746;35.664;139.738;2023-08-06T14:46:07;5.10;;;4.70;;
9413;SDS011;4746;35.664;139.738;2023-08-06T14:48:35;6.22;;;5.57;;
9413;SDS011;4746;35.664;139.738;2023-08-06T14:51:02;7.35;;;6.65;;
9413;SDS011;4746;35.664;139.738;2023-08-06T14:53:30;7.40;;;6.70;;
9413;SDS011;4746;35.664;139.738;2023-08-06T14:55:57;7.25;;;6.63;;
9413;SDS011;4746;35.664;139.738;2023-08-06T14:58:25;7.43;;;5.72;;
9413;SDS011;4746;35.664;139.738;2023-08-06T15:00:52;4.85;;;4.38;;
9413;SDS011;4746;35.664;139.738;2023-08-06T15:03:20;6.47;;;5.07;;
9413;SDS011;4746;35.664;139.738;2023-08-06T15:05:48;6.07;;;4.68;;
9413;SDS011;4746;35.664;139.738;2023-08-06T15:08:16;3.72;;;3.17;;
9413;SDS011;4746;35.664;139.738;2023-08-06T15:10:49;4.03;;;2.53;;
9413;SDS011;4746;35.664;139.738;2023-08-06T15:13:18;2.95;;;2.35;;
9413;SDS011;4746;35.664;139.738;2023-08-06T15:15:47;5.05;;;2.80;;